createdAt,value
2022-12-26T00:01:21.661Z,6.13
2022-12-26T00:04:49.027Z,6.72
2022-12-26T00:07:45.889Z,6.97
2022-12-26T00:10:47.715Z,7.61
2022-12-26T00:13:55.411Z,7.59
2022-12-26T00:16:57.262Z,7.94
2022-12-26T00:20:01.379Z,8.46
2022-12-26T00:23:03.271Z,8.50
2022-12-26T00:26:06.916Z,8.87
2022-12-26T00:29:10.161Z,9.20
2022-12-26T00:32:12.021Z,9.33
2022-12-26T00:35:13.836Z,9.26
2022-12-26T00:38:15.707Z,9.47
2022-12-26T00:41:20.234Z,9.48
2022-12-26T00:44:23.483Z,9.59
2022-12-26T00:47:25.347Z,9.62
2022-12-26T00:50:34.209Z,9.50
2022-12-26T00:53:36.685Z,9.43
2022-12-26T00:56:38.532Z,9.60
2022-12-26T00:59:41.728Z,9.76
2022-12-26T01:02:43.712Z,9.82
2022-12-26T01:05:47.848Z,9.67
2022-12-26T01:08:49.805Z,9.69
2022-12-26T01:11:51.690Z,9.64
2022-12-26T01:14:59.856Z,9.54
2022-12-26T01:18:01.696Z,9.60
2022-12-26T01:21:06.305Z,9.40
2022-12-26T01:24:09.214Z,9.35
2022-12-26T01:27:11.199Z,9.28
2022-12-26T01:30:16.980Z,9.18
2022-12-26T01:33:18.834Z,9.12
2022-12-26T01:36:20.692Z,9.16
2022-12-26T01:39:23.137Z,9.23
2022-12-26T01:42:26.573Z,9.19
2022-12-26T01:45:31.837Z,9.18
2022-12-26T01:48:35.815Z,9.23
2022-12-26T01:51:44.657Z,9.24
2022-12-26T01:54:50.723Z,9.17
2022-12-26T01:57:58.038Z,9.07
2022-12-26T02:01:02.684Z,9.02
2022-12-26T02:04:07.569Z,8.89
2022-12-26T02:07:10.037Z,8.75
2022-12-26T02:10:17.639Z,8.66
2022-12-26T02:13:20.042Z,8.48
2022-12-26T02:16:23.350Z,8.36
2022-12-26T02:19:37.252Z,8.37
2022-12-26T02:23:18.064Z,8.25
2022-12-26T02:26:47.428Z,8.17
2022-12-26T02:30:36.676Z,7.97
2022-12-26T02:33:56.497Z,7.70
2022-12-26T02:37:06.800Z,7.50
2022-12-26T02:40:34.043Z,7.44
2022-12-26T02:43:41.564Z,7.40
2022-12-26T02:46:50.174Z,7.29
2022-12-26T02:50:04.260Z,7.19
2022-12-26T02:53:12.996Z,7.06
2022-12-26T02:56:22.727Z,6.94
2022-12-26T02:59:54.544Z,6.87
2022-12-26T03:02:55.410Z,6.66
2022-12-26T03:06:03.772Z,6.60
2022-12-26T03:09:11.155Z,6.53
2022-12-26T03:12:33.549Z,6.38
2022-12-26T03:15:39.504Z,6.28
2022-12-26T03:18:59.964Z,6.29
2022-12-26T03:22:05.526Z,6.21
2022-12-26T03:25:11.357Z,6.23
2022-12-26T03:28:14.063Z,6.37
2022-12-26T03:31:17.169Z,6.51
2022-12-26T03:34:19.192Z,6.39
2022-12-26T03:37:49.623Z,6.32
2022-12-26T03:41:02.498Z,6.61
2022-12-26T03:44:13.746Z,6.91
2022-12-26T03:47:23.643Z,7.15
2022-12-26T03:50:32.914Z,7.23
2022-12-26T03:53:37.947Z,7.25
2022-12-26T03:56:46.053Z,7.14
2022-12-26T03:59:54.240Z,6.97
2022-12-26T04:03:00.654Z,6.79
2022-12-26T04:06:05.835Z,6.55
2022-12-26T04:09:15.113Z,6.67
2022-12-26T04:12:20.480Z,6.68
2022-12-26T04:15:28.399Z,6.51
2022-12-26T04:18:37.931Z,6.66
2022-12-26T04:21:44.303Z,6.65
2022-12-26T04:24:54.388Z,6.44
2022-12-26T04:27:56.325Z,6.23
2022-12-26T04:31:08.936Z,6.18
2022-12-26T04:34:19.310Z,6.01
2022-12-26T04:37:25.140Z,6.01
2022-12-26T04:40:34.116Z,5.87
2022-12-26T04:43:49.125Z,5.80
2022-12-26T04:46:56.178Z,5.48
2022-12-26T04:49:58.148Z,5.51
2022-12-26T04:53:00.718Z,5.47
2022-12-26T04:56:04.718Z,5.39
2022-12-26T04:59:06.623Z,5.28
2022-12-26T05:02:09.301Z,5.19
2022-12-26T05:05:11.272Z,5.08
2022-12-26T05:08:22.659Z,5.06
2022-12-26T05:11:28.553Z,5.06
2022-12-26T05:14:30.430Z,5.03
2022-12-26T05:17:33.766Z,5.02
2022-12-26T05:20:35.598Z,5.06
2022-12-26T05:23:38.159Z,5.02
2022-12-26T05:26:41.430Z,4.97
2022-12-26T05:29:43.437Z,4.97
2022-12-26T05:32:45.277Z,4.83
2022-12-26T05:35:47.127Z,4.87
2022-12-26T05:38:49.072Z,4.81
2022-12-26T05:41:52.377Z,4.83
2022-12-26T05:44:54.272Z,5.07
2022-12-26T05:47:58.487Z,5.12
2022-12-26T05:51:00.463Z,5.14
2022-12-26T05:54:02.720Z,5.47
2022-12-26T05:57:05.927Z,5.72
2022-12-26T06:00:08.843Z,5.95
2022-12-26T06:03:10.760Z,6.19
2022-12-26T06:06:13.231Z,6.43
2022-12-26T06:09:15.064Z,6.65
2022-12-26T06:12:18.278Z,6.40
2022-12-26T06:15:20.116Z,6.13
2022-12-26T06:18:21.978Z,6.11
2022-12-26T06:21:24.329Z,5.84
2022-12-26T06:24:26.201Z,5.69
2022-12-26T06:27:29.432Z,5.75
2022-12-26T06:30:31.293Z,6.04
2022-12-26T06:33:33.114Z,6.69
2022-12-26T06:36:35.261Z,7.25
2022-12-26T06:39:37.077Z,8.07
2022-12-26T06:42:41.205Z,8.63
2022-12-26T06:45:43.141Z,8.95
2022-12-26T06:48:45.385Z,9.14
2022-12-26T06:51:47.241Z,9.08
2022-12-26T06:54:49.167Z,9.10
2022-12-26T06:57:53.452Z,9.03
2022-12-26T07:00:55.384Z,9.27
2022-12-26T07:03:57.572Z,9.22
2022-12-26T07:06:59.427Z,9.29
2022-12-26T07:10:01.405Z,9.13
2022-12-26T07:13:04.616Z,8.98
2022-12-26T07:16:06.839Z,8.79
2022-12-26T07:19:11.351Z,8.55
2022-12-26T07:22:13.176Z,8.42
2022-12-26T07:25:15.127Z,8.08
2022-12-26T07:28:18.368Z,7.82
2022-12-26T07:31:20.658Z,7.53
2022-12-26T07:34:26.456Z,7.21
2022-12-26T07:37:31.302Z,7.04
2022-12-26T07:40:33.188Z,6.92
2022-12-26T07:43:36.376Z,6.68
2022-12-26T07:46:40.971Z,6.74
2022-12-26T07:49:42.832Z,7.07
2022-12-26T07:52:44.620Z,7.26
2022-12-26T07:55:46.559Z,7.45
2022-12-26T07:58:50.388Z,7.72
2022-12-26T08:01:52.497Z,7.83
2022-12-26T08:04:54.488Z,7.98
2022-12-26T08:07:56.364Z,8.01
2022-12-26T08:11:01.833Z,8.04
2022-12-26T08:14:05.072Z,7.98
2022-12-26T08:17:07.760Z,7.90
2022-12-26T08:20:12.255Z,7.88
2022-12-26T08:23:14.094Z,8.03
2022-12-26T08:26:15.990Z,8.01
2022-12-26T08:29:19.228Z,8.07
2022-12-26T08:32:21.102Z,8.22
2022-12-26T08:35:22.949Z,8.17
2022-12-26T08:38:28.461Z,8.26
2022-12-26T08:41:33.771Z,8.38
2022-12-26T08:44:37.958Z,8.58
2022-12-26T08:47:39.819Z,8.69
2022-12-26T08:50:41.746Z,8.95
2022-12-26T08:53:44.282Z,8.97
2022-12-26T08:56:46.149Z,8.88
2022-12-26T08:59:49.447Z,8.92
2022-12-26T09:02:51.379Z,9.00
2022-12-26T09:05:53.324Z,9.05
2022-12-26T09:08:55.145Z,9.23
2022-12-26T09:11:57.022Z,9.32
2022-12-26T09:15:00.350Z,9.49
2022-12-26T09:18:02.353Z,9.65
2022-12-26T09:21:06.156Z,9.47
2022-12-26T09:24:11.598Z,9.51
2022-12-26T09:27:13.509Z,9.55
2022-12-26T09:30:18.296Z,9.61
2022-12-26T09:33:20.264Z,9.57
2022-12-26T09:36:24.094Z,9.55
2022-12-26T09:39:25.960Z,9.56
2022-12-26T09:42:38.017Z,9.72
2022-12-26T09:45:56.643Z,9.78
2022-12-26T09:49:04.577Z,9.69
2022-12-26T09:52:14.584Z,9.76
2022-12-26T09:55:29.668Z,9.75
2022-12-26T09:58:34.627Z,9.70
2022-12-26T10:01:38.032Z,9.71
2022-12-26T10:04:40.395Z,9.78
2022-12-26T10:07:46.265Z,9.71
2022-12-26T10:10:55.142Z,9.75
2022-12-26T10:14:02.874Z,9.81
2022-12-26T10:17:17.027Z,9.82
2022-12-26T10:20:25.169Z,9.96
2022-12-26T10:23:32.369Z,9.95
2022-12-26T10:26:38.441Z,9.96
2022-12-26T10:29:43.836Z,10.03
2022-12-26T10:32:52.946Z,10.14
2022-12-26T10:35:55.200Z,10.34
2022-12-26T10:38:59.808Z,10.32
2022-12-26T10:42:11.696Z,10.39
2022-12-26T10:45:17.259Z,10.43
2022-12-26T10:48:21.603Z,10.45
2022-12-26T10:51:26.286Z,10.54
2022-12-26T10:54:30.713Z,10.61
2022-12-26T10:57:36.733Z,10.38
2022-12-26T11:00:38.590Z,10.43
2022-12-26T11:03:54.673Z,10.34
2022-12-26T11:06:57.201Z,10.24
2022-12-26T11:09:59.521Z,10.15
2022-12-26T11:13:04.801Z,10.13
2022-12-26T11:16:08.449Z,10.10
2022-12-26T11:19:26.569Z,10.19
2022-12-26T11:22:29.526Z,10.23
2022-12-26T11:25:31.410Z,10.27
2022-12-26T11:28:36.682Z,10.32
2022-12-26T11:31:40.643Z,10.31
2022-12-26T11:34:48.062Z,10.31
2022-12-26T11:37:53.529Z,10.33
2022-12-26T11:40:55.460Z,10.34
2022-12-26T11:44:04.724Z,10.51
2022-12-26T11:47:11.487Z,10.66
2022-12-26T11:50:17.156Z,10.82
2022-12-26T11:53:21.909Z,10.95
2022-12-26T11:56:26.135Z,11.06
2022-12-26T11:59:27.968Z,11.14
2022-12-26T12:02:31.327Z,11.19
2022-12-26T12:05:45.942Z,11.22
2022-12-26T12:09:02.209Z,11.25
2022-12-26T12:12:14.964Z,11.17
2022-12-26T12:15:22.886Z,11.25
2022-12-26T12:18:36.082Z,11.19
2022-12-26T12:21:44.644Z,11.21
2022-12-26T12:25:00.409Z,11.23
2022-12-26T12:28:17.221Z,11.24
2022-12-26T12:31:29.179Z,11.21
2022-12-26T12:34:43.758Z,11.19
2022-12-26T12:38:03.895Z,11.25
2022-12-26T12:41:19.355Z,11.23
2022-12-26T12:44:24.832Z,11.17
2022-12-26T12:47:35.408Z,11.15
2022-12-26T12:50:44.172Z,11.20
2022-12-26T12:54:25.881Z,11.19
2022-12-26T12:57:35.324Z,11.09
2022-12-26T13:00:44.610Z,11.03
2022-12-26T13:03:52.943Z,10.94
2022-12-26T13:06:58.537Z,10.91
2022-12-26T13:10:05.129Z,10.86
2022-12-26T13:13:15.648Z,10.78
2022-12-26T13:16:22.133Z,10.74
2022-12-26T13:19:27.459Z,10.74
2022-12-26T13:22:34.960Z,10.77
2022-12-26T13:25:42.624Z,10.79
2022-12-26T13:28:53.425Z,10.79
2022-12-26T13:31:55.466Z,10.83
2022-12-26T13:35:00.339Z,10.83
2022-12-26T13:38:02.199Z,10.78
2022-12-26T13:41:05.524Z,10.88
2022-12-26T13:44:23.666Z,10.86
2022-12-26T13:47:34.927Z,11.16
2022-12-26T13:50:53.432Z,11.39
2022-12-26T13:54:03.104Z,11.50
2022-12-26T13:57:34.925Z,11.59
2022-12-26T14:00:44.880Z,11.67
2022-12-26T14:04:12.254Z,11.44
2022-12-26T14:07:25.135Z,11.35
2022-12-26T14:10:38.583Z,11.12
2022-12-26T14:13:56.409Z,10.92
2022-12-26T14:17:08.588Z,10.64
2022-12-26T14:20:26.901Z,10.36
2022-12-26T14:23:44.228Z,10.11
2022-12-26T14:26:53.600Z,10.10
2022-12-26T14:30:06.902Z,9.88
2022-12-26T14:33:24.256Z,9.71
2022-12-26T14:36:36.572Z,9.58
2022-12-26T14:39:47.175Z,9.46
2022-12-26T14:43:27.716Z,9.31
2022-12-26T14:46:59.193Z,9.25
2022-12-26T14:50:38.673Z,9.13
2022-12-26T14:53:40.888Z,9.01
2022-12-26T14:56:43.231Z,8.94
2022-12-26T15:00:10.674Z,8.88
2022-12-26T15:03:33.852Z,8.78
2022-12-26T15:07:14.073Z,8.70
2022-12-26T15:11:05.927Z,8.60
2022-12-26T15:14:50.200Z,8.54
2022-12-26T15:18:17.794Z,8.50
2022-12-26T15:21:50.584Z,8.39
2022-12-26T15:25:39.162Z,8.27
2022-12-26T15:29:12.597Z,8.27
2022-12-26T15:32:19.466Z,8.23
2022-12-26T15:35:26.632Z,8.40
2022-12-26T15:38:39.952Z,8.36
2022-12-26T15:41:47.072Z,8.37
2022-12-26T15:44:57.399Z,8.22
2022-12-26T15:48:05.600Z,8.26
2022-12-26T15:51:11.555Z,8.31
2022-12-26T15:54:28.854Z,8.34
2022-12-26T15:57:39.059Z,8.32
2022-12-26T16:00:51.745Z,8.34
2022-12-26T16:03:55.631Z,8.30
2022-12-26T16:07:08.568Z,8.24
2022-12-26T16:10:29.255Z,8.21
2022-12-26T16:13:33.047Z,8.20
2022-12-26T16:16:38.888Z,8.22
2022-12-26T16:19:41.926Z,8.10
2022-12-26T16:22:44.398Z,8.04
2022-12-26T16:25:49.488Z,7.93
2022-12-26T16:28:53.296Z,7.91
2022-12-26T16:32:02.913Z,7.94
2022-12-26T16:35:16.326Z,7.94
2022-12-26T16:38:22.512Z,8.01
2022-12-26T16:41:27.877Z,7.99
2022-12-26T16:44:35.116Z,7.98
2022-12-26T16:47:37.653Z,7.96
2022-12-26T16:50:47.392Z,8.00
2022-12-26T16:53:51.186Z,8.01
2022-12-26T16:57:02.333Z,8.05
2022-12-26T17:00:04.693Z,8.03
2022-12-26T17:03:17.556Z,8.05
2022-12-26T17:06:26.059Z,8.03
2022-12-26T17:09:31.584Z,8.07
2022-12-26T17:12:38.662Z,8.01
2022-12-26T17:15:51.302Z,8.05
2022-12-26T17:18:57.127Z,8.10
2022-12-26T17:22:22.306Z,8.09
2022-12-26T17:25:28.039Z,8.13
2022-12-26T17:28:37.084Z,8.17
2022-12-26T17:31:41.988Z,8.18
2022-12-26T17:34:44.202Z,8.22
2022-12-26T17:37:50.190Z,8.20
2022-12-26T17:40:54.185Z,8.18
2022-12-26T17:43:57.406Z,8.18
2022-12-26T17:47:02.268Z,8.16
2022-12-26T17:50:05.008Z,8.09
2022-12-26T17:53:15.274Z,8.03
2022-12-26T17:56:20.155Z,8.04
2022-12-26T17:59:23.807Z,8.07
2022-12-26T18:02:25.931Z,7.93
2022-12-26T18:05:27.874Z,8.00
2022-12-26T18:08:32.753Z,7.92
2022-12-26T18:11:34.849Z,7.93
2022-12-26T18:14:38.483Z,8.00
2022-12-26T18:17:40.691Z,7.84
2022-12-26T18:20:42.612Z,7.93
2022-12-26T18:23:45.411Z,7.85
2022-12-26T18:26:48.744Z,7.77
2022-12-26T18:29:52.867Z,7.79
2022-12-26T18:32:55.237Z,7.80
2022-12-26T18:36:05.803Z,7.83
2022-12-26T18:39:13.724Z,7.78
2022-12-26T18:42:16.804Z,7.68
2022-12-26T18:45:20.548Z,7.60
2022-12-26T18:48:22.738Z,7.53
2022-12-26T18:51:26.170Z,7.41
2022-12-26T18:54:28.621Z,7.54
2022-12-26T18:57:30.512Z,7.52
2022-12-26T19:00:33.935Z,7.55
2022-12-26T19:03:35.767Z,7.55
2022-12-26T19:06:38.231Z,7.47
2022-12-26T19:09:43.452Z,7.42
2022-12-26T19:12:48.417Z,7.43
2022-12-26T19:15:51.645Z,7.45
2022-12-26T19:18:53.726Z,7.47
2022-12-26T19:21:56.105Z,7.57
2022-12-26T19:24:59.776Z,7.52
2022-12-26T19:28:02.000Z,7.37
2022-12-26T19:31:09.241Z,7.41
2022-12-26T19:34:11.235Z,7.44
2022-12-26T19:37:13.852Z,7.37
2022-12-26T19:40:21.260Z,7.20
2022-12-26T19:43:27.069Z,7.27
2022-12-26T19:46:31.247Z,7.20
2022-12-26T19:49:33.965Z,7.17
2022-12-26T19:52:37.446Z,7.20
2022-12-26T19:55:39.895Z,7.06
2022-12-26T19:58:42.767Z,7.18
2022-12-26T20:01:47.169Z,7.26
2022-12-26T20:04:49.426Z,7.20
2022-12-26T20:07:51.605Z,7.33
2022-12-26T20:10:58.836Z,7.31
2022-12-26T20:14:03.804Z,7.26
2022-12-26T20:17:08.041Z,7.33
2022-12-26T20:20:13.822Z,7.38
2022-12-26T20:23:15.932Z,7.40
2022-12-26T20:26:23.125Z,7.31
2022-12-26T20:29:25.150Z,7.35
2022-12-26T20:32:28.926Z,7.38
2022-12-26T20:35:31.287Z,7.27
2022-12-26T20:38:33.956Z,7.36
2022-12-26T20:41:35.845Z,7.27
2022-12-26T20:44:38.481Z,7.24
2022-12-26T20:47:42.508Z,7.21
2022-12-26T20:50:45.005Z,7.22
2022-12-26T20:53:47.866Z,7.31
2022-12-26T20:56:49.751Z,7.31
2022-12-26T20:59:51.575Z,7.32
2022-12-26T21:02:55.380Z,7.29
2022-12-26T21:06:06.317Z,7.27
2022-12-26T21:09:08.179Z,7.32
2022-12-26T21:12:10.118Z,7.39
2022-12-26T21:15:12.043Z,7.38
2022-12-26T21:18:15.276Z,7.40
2022-12-26T21:21:19.140Z,7.42
2022-12-26T21:24:26.393Z,7.42
2022-12-26T21:27:28.467Z,7.45
2022-12-26T21:30:30.428Z,7.30
2022-12-26T21:33:44.009Z,7.28
2022-12-26T21:36:47.060Z,7.38
2022-12-26T21:39:50.854Z,7.43
2022-12-26T21:42:52.724Z,7.46
2022-12-26T21:46:00.881Z,7.47
2022-12-26T21:49:04.387Z,7.49
2022-12-26T21:52:07.168Z,7.53
2022-12-26T21:55:10.392Z,7.55
2022-12-26T21:58:12.346Z,7.55
2022-12-26T22:01:17.209Z,7.56
2022-12-26T22:04:20.566Z,7.58
2022-12-26T22:07:22.419Z,7.51
2022-12-26T22:10:25.108Z,7.54
2022-12-26T22:13:26.986Z,7.57
2022-12-26T22:16:28.870Z,7.58
2022-12-26T22:19:32.094Z,7.56
2022-12-26T22:22:33.953Z,7.52
2022-12-26T22:25:36.014Z,7.52
2022-12-26T22:28:38.360Z,7.61
2022-12-26T22:31:40.203Z,7.61
2022-12-26T22:34:43.796Z,7.75
2022-12-26T22:37:45.703Z,7.71
2022-12-26T22:40:55.528Z,7.52
2022-12-26T22:43:57.429Z,7.54
2022-12-26T22:46:59.265Z,7.54
2022-12-26T22:50:02.543Z,7.37
2022-12-26T22:53:04.409Z,7.38
2022-12-26T22:56:07.013Z,7.31
2022-12-26T22:59:11.317Z,7.37
2022-12-26T23:02:13.253Z,7.36
2022-12-26T23:05:17.428Z,7.29
2022-12-26T23:08:23.105Z,7.27
2022-12-26T23:11:34.070Z,7.11
2022-12-26T23:14:37.517Z,7.09
2022-12-26T23:17:41.372Z,7.05
2022-12-26T23:20:45.246Z,6.93
2022-12-26T23:23:47.783Z,6.83
2022-12-26T23:26:51.502Z,6.81
2022-12-26T23:29:56.249Z,6.74
2022-12-26T23:32:58.307Z,6.64
2022-12-26T23:36:01.549Z,6.58
2022-12-26T23:39:04.038Z,6.63
2022-12-26T23:42:06.297Z,6.58
2022-12-26T23:45:10.166Z,6.61
2022-12-26T23:48:12.105Z,6.59
2022-12-26T23:51:16.159Z,6.53
2022-12-26T23:54:18.027Z,6.55
2022-12-26T23:57:19.875Z,6.59
